Aeroporto :
LOGIN :

Iscrizione | Disclaimer

   EN    FR    IT 

 










Sommario :    VFR   VFR Marginale   IFR   IFR Intensivo   IFR Molto Intensivo
Visibilità : 
Base nubi : 
>= 8 km
>= 3000ft
5 / 8 km
1000 / 3000 ft
1500m / 5 km
500 / 1000 ft
800 / 1500m
200 / 500 ft
< 800m
< 200 ft
Simboli :   Temporali  Nebbia  Neve Forte  Precipitazioni Forti  Vento > 20 kt
SIGMETs :   Varie  Temporali  Ghiacco  Turbolenza  Onda orograficha  Ceneri Vulcaniche






- Altitudine del aeroporto : 433 ft


LFOC - Chateaudun

ULTIMO METAR :
  • 160800Z AUTO 00000KT 9999 FEW008/// SCT023/// OVC032/// ///TCU 09/09 Q1004 TEMPO 3000 SHRA BKN006 SCT020TCU

METARs OBSOLETI :
  • 160730Z AUTO 20004KT 9999 -RA BKN007/// BKN016/// OVC025/// ///TCU 09/09 Q1004 TEMPO 3000 SHRA
  • 160700Z AUTO 17007KT 4200 RA BR FEW005/// BKN009/// BKN019/// ///TCU 09/09 Q1004 NOSIG
  • 160630Z AUTO 18005KT 9999 -RADZ SCT005/// OVC009/// ///TCU 08/08 Q1004 TEMPO 3000 SHRA
  • 160600Z AUTO 17006KT 140V220 9999 -RA FEW004/// BKN012/// OVC019/// ///TCU 08/08 Q1004
  • 160530Z AUTO 15008KT 6000 -RA SCT004/// BKN014/// OVC019/// ///TCU 08/08 Q1004

TAF AMD TAF LFOC
Valido dal 16 a 05 ore il 17 a 03 ore UTC


160550Z 1605/1703 14005KT 9999 SCT015 BKN020
TEMPO 1605/1610 3000 SHRA BKN006 SCT020TCU
BECMG 1612/1615 CAVOK



MetMap, La meteo Aeronautica in un colpo d'occhio ! - Copyright ORBIFLY Dicembre 2007 - Disclaimer

ORBIFLY MET'MAP TEAM :

Programmazione e sviluppo : Alexandra Zaïnal
Concezione : Baudouin d'Aumeries
Aiuto per la programmazione : Marc-Olivier Méhu
Supporto tecnico e logistico : Manuel Goepfert
Aiuto per la traduzione : Arnaldo La Scala

Contatto : metmap@orbifly.com




FONTI E CREDITI :

   NOAA